Time;durP1;ratioP1;P1;durP2;ratioP2;P2;SDS_P1;SDS_P2;PMS_P1;PMS_P2;Temp;Humidity;BMP_temperature;BMP_pressure;BME280_temperature;BME280_humidity;BME280_pressure;Samples;Min_cycle;Max_cycle;Signal;HPM_P1;HPM_P2
2023/01/15 00:02:16;;;;;;;;;;;;;;;7.98;55.70;99426.56;4480621;32;34137;-92
2023/01/15 00:04:44;;;;;;;;;;;;;;;8.73;54.46;99428.53;4482321;32;33033;-83
2023/01/15 00:07:11;;;;;;;;;;;;;;;8.05;56.49;99418.16;4484632;32;34854;-81
2023/01/15 00:09:38;;;;;;;;;;;;;;;8.61;55.02;99423.94;4484666;32;33931;-82
2023/01/15 00:12:06;;;;;;;;;;;;;;;8.39;55.13;99417.34;4480508;32;34788;-93
2023/01/15 00:14:34;;;;;;;;;;;;;;;8.72;53.97;99412.16;4485288;32;33046;-91
2023/01/15 00:17:02;;;;;;;;;;;;;;;6.93;59.23;99414.03;4483963;32;34036;-93
2023/01/15 00:19:29;;;;;;;;;;;;;;;8.56;54.74;99419.47;4484260;32;33949;-84
2023/01/15 00:21:57;;;;;;;;;;;;;;;7.71;56.55;99413.78;4476092;32;34827;-92
2023/01/15 00:30:00;;;;;;;;;;;;;;;6.75;60.27;99415.22;4468631;32;34351;-91
2023/01/15 00:32:29;;;;;;;;;;;;;;;7.15;58.88;99406.13;4479674;32;34261;-91
2023/01/15 00:34:59;;;;;;;;;;;;;;;6.64;60.02;99416.56;4482853;32;34065;-84
2023/01/15 00:37:26;;;;;;;;;;;;;;;6.76;59.76;99400.63;4470893;32;34975;-91
2023/01/15 00:39:54;;;;;;;;;;;;;;;8.20;56.02;99400.47;4470117;32;34227;-93
2023/01/15 00:42:21;;;;;;;;;;;;;;;8.01;56.40;99395.66;4479857;32;34399;-93
2023/01/15 00:44:48;;;;;;;;;;;;;;;7.36;57.82;99389.56;4483608;32;33471;-81
2023/01/15 00:47:16;;;;;;;;;;;;;;;6.88;59.06;99397.56;4484165;32;33903;-89
2023/01/15 00:49:43;;;;;;;;;;;;;;;7.20;57.59;99389.09;4483898;32;35413;-83
2023/01/15 00:52:10;;;;;;;;;;;;;;;6.80;59.10;99395.59;4452554;32;874415;-85
2023/01/15 00:54:39;;;;;;;;;;;;;;;7.67;56.64;99396.44;4484260;32;34277;-93
2023/01/15 00:57:06;;;;;;;;;;;;;;;7.45;56.23;99400.13;4484317;32;33962;-85
2023/01/15 00:59:35;;;;;;;;;;;;;;;7.39;56.61;99397.38;4483897;32;34446;-82
2023/01/15 01:02:03;;;;;;;;;;;;;;;6.78;58.85;99398.94;4475234;32;34854;-82
2023/01/15 01:04:30;;;;;;;;;;;;;;;7.19;57.24;99397.66;4483402;32;33044;-92
2023/01/15 01:06:57;;;;;;;;;;;;;;;7.11;57.51;99396.53;4469546;32;33696;-82
2023/01/15 01:09:24;;;;;;;;;;;;;;;7.43;56.57;99391.47;4483305;32;34460;-90
2023/01/15 01:11:52;;;;;;;;;;;;;;;6.29;59.26;99387.09;4481657;32;34593;-93
2023/01/15 01:14:19;;;;;;;;;;;;;;;6.55;58.87;99386.25;4480166;32;32767;-83
2023/01/15 01:16:46;;;;;;;;;;;;;;;6.84;58.23;99388.84;4483871;32;34939;-91
2023/01/15 01:19:18;;;;;;;;;;;;;;;6.39;59.18;99393.41;4483996;32;34297;-91
2023/01/15 01:21:45;;;;;;;;;;;;;;;7.11;57.34;99383.66;4461247;32;34377;-83
2023/01/15 01:24:18;;;;;;;;;;;;;;;6.40;58.99;99390.87;4469939;32;33347;-87
2023/01/15 01:26:45;;;;;;;;;;;;;;;7.17;57.08;99375.25;4469810;32;33913;-82
2023/01/15 01:29:13;;;;;;;;;;;;;;;5.14;62.32;99390.69;4469658;32;35273;-93
2023/01/15 01:31:41;;;;;;;;;;;;;;;5.08;62.99;99401.63;4483270;32;33787;-83
2023/01/15 01:34:09;;;;;;;;;;;;;;;6.45;59.41;99384.19;4484191;32;33575;-87
2023/01/15 01:36:37;;;;;;;;;;;;;;;6.41;59.10;99373.75;4468671;32;35084;-90
2023/01/15 01:39:04;;;;;;;;;;;;;;;6.45;58.75;99365.28;4483776;32;34056;-91
2023/01/15 01:41:32;;;;;;;;;;;;;;;6.25;59.68;99375.81;4465946;32;34771;-82
2023/01/15 01:44:03;;;;;;;;;;;;;;;6.72;57.72;99371.31;4467335;32;33099;-84
2023/01/15 01:46:34;;;;;;;;;;;;;;;6.01;59.78;99370.69;4461557;32;34777;-92
2023/01/15 01:49:12;;;;;;;;;;;;;;;6.87;57.63;99368.34;4474134;32;34553;-93
2023/01/15 01:51:40;;;;;;;;;;;;;;;6.49;58.47;99356.84;4476787;32;34780;-91
2023/01/15 01:54:08;;;;;;;;;;;;;;;6.59;58.54;99353.69;4469689;32;32956;-89
2023/01/15 01:56:36;;;;;;;;;;;;;;;5.90;60.23;99345.41;4469887;32;33841;-89
2023/01/15 01:59:04;;;;;;;;;;;;;;;5.39;61.47;99342.75;4473790;32;34401;-83
2023/01/15 02:01:32;;;;;;;;;;;;;;;6.17;59.84;99336.03;4467259;32;34709;-82
2023/01/15 02:03:59;;;;;;;;;;;;;;;6.71;57.81;99320.63;4462098;32;34197;-90
2023/01/15 02:06:27;;;;;;;;;;;;;;;7.15;56.48;99315.87;4467964;32;34152;-94
2023/01/15 02:08:54;;;;;;;;;;;;;;;7.35;56.06;99308.72;4466811;32;35431;-87
2023/01/15 02:11:22;;;;;;;;;;;;;;;7.59;54.78;99305.94;4471318;32;33990;-83
2023/01/15 02:13:55;;;;;;;;;;;;;;;6.11;59.52;99304.97;4455195;32;33637;-93
2023/01/15 02:16:31;;;;;;;;;;;;;;;6.65;57.21;99296.38;4467392;32;34324;-93
2023/01/15 02:19:00;;;;;;;;;;;;;;;6.23;58.61;99295.06;4483386;32;35675;-94
2023/01/15 02:21:46;;;;;;;;;;;;;;;5.99;59.47;99294.28;4468944;32;34283;-83
2023/01/15 02:24:21;;;;;;;;;;;;;;;6.08;58.66;99298.03;4483326;32;33384;-89
2023/01/15 02:27:15;;;;;;;;;;;;;;;6.37;58.33;99298.09;4466051;32;34010;-89
2023/01/15 02:29:51;;;;;;;;;;;;;;;6.71;57.85;99299.13;4473814;32;34790;-83
2023/01/15 02:32:28;;;;;;;;;;;;;;;6.75;57.98;99293.25;4467293;32;33831;-84
2023/01/15 02:34:57;;;;;;;;;;;;;;;6.32;58.65;99290.19;4467729;32;33462;-93
2023/01/15 02:37:28;;;;;;;;;;;;;;;6.20;59.33;99288.94;4482882;32;33737;-82
2023/01/15 02:39:55;;;;;;;;;;;;;;;6.32;58.83;99287.63;4468909;32;34170;-93
2023/01/15 02:42:23;;;;;;;;;;;;;;;5.35;62.18;99293.78;4464598;32;34326;-93
2023/01/15 02:44:52;;;;;;;;;;;;;;;6.53;58.73;99289.12;4468877;32;34274;-86
2023/01/15 02:47:21;;;;;;;;;;;;;;;6.13;59.44;99281.84;4468394;32;33830;-83
2023/01/15 02:49:48;;;;;;;;;;;;;;;6.58;57.82;99278.13;4469121;32;34381;-84
2023/01/15 02:52:18;;;;;;;;;;;;;;;6.14;60.23;99279.34;4464965;32;34136;-83
2023/01/15 02:54:46;;;;;;;;;;;;;;;6.41;59.08;99271.59;4457811;32;32792;-83
2023/01/15 02:57:14;;;;;;;;;;;;;;;5.65;61.49;99275.13;4471090;32;34279;-89
2023/01/15 02:59:45;;;;;;;;;;;;;;;5.48;61.43;99274.53;4468099;32;33543;-83
2023/01/15 03:02:14;;;;;;;;;;;;;;;6.75;58.07;99280.34;4478895;32;34066;-92
2023/01/15 03:04:53;;;;;;;;;;;;;;;4.95;62.79;99276.06;4482911;32;33388;-92
2023/01/15 03:07:23;;;;;;;;;;;;;;;4.83;63.21;99263.63;4482552;32;34269;-90
2023/01/15 03:09:50;;;;;;;;;;;;;;;4.49;64.86;99265.75;4483204;32;34058;-82
2023/01/15 03:12:23;;;;;;;;;;;;;;;4.98;63.47;99259.88;4476818;32;34293;-82
2023/01/15 03:14:57;;;;;;;;;;;;;;;5.48;61.64;99255.66;4466587;32;33677;-83
2023/01/15 03:17:34;;;;;;;;;;;;;;;5.80;60.97;99257.62;4482029;32;35278;-85
2023/01/15 03:20:04;;;;;;;;;;;;;;;6.24;59.90;99259.91;4461875;32;34402;-88
2023/01/15 03:22:33;;;;;;;;;;;;;;;6.58;58.94;99252.38;4466479;32;32680;-83
2023/01/15 03:25:20;;;;;;;;;;;;;;;6.25;58.70;99249.66;4468021;32;33907;-83
2023/01/15 03:27:48;;;;;;;;;;;;;;;5.56;60.83;99251.63;4482344;32;34730;-90
2023/01/15 03:30:18;;;;;;;;;;;;;;;6.65;57.82;99248.28;4480693;31;34368;-92
2023/01/15 03:32:45;;;;;;;;;;;;;;;6.13;59.69;99244.09;4484179;32;34327;-83
2023/01/15 03:35:31;;;;;;;;;;;;;;;5.42;62.24;99250.28;4470224;32;34258;-83
2023/01/15 03:37:59;;;;;;;;;;;;;;;6.09;59.52;99247.41;4484387;32;34133;-83
2023/01/15 03:40:27;;;;;;;;;;;;;;;6.22;59.83;99240.97;4483149;32;34838;-83
2023/01/15 03:43:39;;;;;;;;;;;;;;;6.33;59.16;99230.19;4469860;32;33997;-82
2023/01/15 03:45:43;;;;;;;;;;;;;;;7.09;57.34;99235.81;4472417;32;32538;-84
2023/01/15 03:48:19;;;;;;;;;;;;;;;6.54;57.63;99235.09;4484038;32;34623;-84
2023/01/15 03:50:47;;;;;;;;;;;;;;;5.48;61.41;99237.66;4480030;31;34925;-84
2023/01/15 03:53:15;;;;;;;;;;;;;;;5.16;62.74;99245.13;4467513;32;34248;-82
2023/01/15 03:55:51;;;;;;;;;;;;;;;4.68;64.00;99245.09;4469052;32;34113;-93
2023/01/15 03:58:21;;;;;;;;;;;;;;;5.51;61.33;99240.34;4467569;32;33950;-83
2023/01/15 04:00:49;;;;;;;;;;;;;;;5.15;63.48;99240.78;4462932;32;35326;-91
2023/01/15 04:03:17;;;;;;;;;;;;;;;5.42;61.97;99227.16;4484545;32;33857;-83
2023/01/15 04:05:46;;;;;;;;;;;;;;;6.21;59.66;99216.94;4484041;32;33185;-84
2023/01/15 04:08:13;;;;;;;;;;;;;;;5.77;61.28;99236.94;4470090;32;34763;-83
2023/01/15 04:10:52;;;;;;;;;;;;;;;6.00;60.90;99230.00;4466513;32;34492;-89
2023/01/15 04:13:19;;;;;;;;;;;;;;;5.92;60.60;99240.84;4484450;32;35009;-83
2023/01/15 04:15:47;;;;;;;;;;;;;;;5.06;63.67;99232.78;4484824;32;33600;-94
2023/01/15 04:18:15;;;;;;;;;;;;;;;5.44;62.62;99231.53;4484471;32;34243;-83
2023/01/15 04:20:42;;;;;;;;;;;;;;;5.84;61.14;99233.75;4483974;32;35034;-83
2023/01/15 04:23:10;;;;;;;;;;;;;;;6.15;60.21;99229.59;4484463;32;34900;-88
2023/01/15 04:25:38;;;;;;;;;;;;;;;6.64;59.08;99220.78;4469113;32;34136;-93
2023/01/15 04:28:05;;;;;;;;;;;;;;;5.47;61.62;99220.50;4469811;32;34838;-83
2023/01/15 04:30:33;;;;;;;;;;;;;;;5.75;61.62;99232.56;4476356;32;35150;-84
2023/01/15 04:33:01;;;;;;;;;;;;;;;6.61;58.76;99219.81;4483845;32;34323;-95
2023/01/15 04:35:28;;;;;;;;;;;;;;;6.37;59.50;99214.81;4484233;32;34121;-83
2023/01/15 04:37:56;;;;;;;;;;;;;;;6.36;59.31;99216.50;4479715;31;35335;-91
2023/01/15 04:45:57;;;;;;;;;;;;;;;5.14;64.07;99215.94;4456182;32;34128;-82
2023/01/15 04:48:25;;;;;;;;;;;;;;;5.86;61.71;99216.63;4454112;32;35075;-85
2023/01/15 04:50:53;;;;;;;;;;;;;;;6.43;59.72;99215.00;4461241;31;33892;-83
2023/01/15 04:53:20;;;;;;;;;;;;;;;5.43;62.74;99218.63;4459316;32;33565;-82
2023/01/15 04:55:48;;;;;;;;;;;;;;;5.57;62.30;99207.13;4483658;32;34376;-84
2023/01/15 04:58:16;;;;;;;;;;;;;;;6.11;60.60;99209.75;4479101;32;34155;-83
2023/01/15 05:00:43;;;;;;;;;;;;;;;5.68;61.39;99213.47;4474381;31;34411;-83
2023/01/15 05:03:10;;;;;;;;;;;;;;;5.21;63.24;99197.31;4468191;32;34436;-84
2023/01/15 05:05:37;;;;;;;;;;;;;;;5.01;63.53;99209.50;4468548;32;33323;-83
2023/01/15 05:08:04;;;;;;;;;;;;;;;4.91;64.21;99206.53;4468183;32;34871;-86
2023/01/15 05:10:32;;;;;;;;;;;;;;;5.31;63.94;99199.41;4476576;31;34586;-83
2023/01/15 05:12:59;;;;;;;;;;;;;;;5.99;61.63;99197.38;4483086;31;32312;-92
2023/01/15 05:15:27;;;;;;;;;;;;;;;6.00;61.37;99198.25;4483630;32;33333;-93
2023/01/15 05:17:55;;;;;;;;;;;;;;;4.94;64.79;99198.94;4478229;31;33927;-91
2023/01/15 05:20:22;;;;;;;;;;;;;;;5.26;63.80;99190.63;4483625;32;34787;-90
2023/01/15 05:22:49;;;;;;;;;;;;;;;5.41;63.92;99189.41;4483818;32;34232;-83
2023/01/15 05:25:16;;;;;;;;;;;;;;;6.05;61.70;99191.53;4483773;32;33307;-83
2023/01/15 05:27:44;;;;;;;;;;;;;;;6.23;60.52;99176.66;4483212;32;34505;-91
2023/01/15 05:30:11;;;;;;;;;;;;;;;5.81;62.16;99187.31;4483288;32;34467;-83
2023/01/15 05:32:38;;;;;;;;;;;;;;;6.17;60.75;99166.16;4483207;32;33570;-83
2023/01/15 05:35:06;;;;;;;;;;;;;;;6.15;61.06;99162.69;4483759;32;33059;-82
2023/01/15 05:37:33;;;;;;;;;;;;;;;5.66;62.76;99167.97;4482985;32;33769;-94
2023/01/15 05:40:03;;;;;;;;;;;;;;;4.24;66.68;99174.97;4483138;32;32822;-82
2023/01/15 05:42:30;;;;;;;;;;;;;;;4.39;67.09;99162.75;4483893;32;34074;-94
2023/01/15 05:44:57;;;;;;;;;;;;;;;4.35;67.94;99158.28;4484119;32;33380;-92
2023/01/15 05:47:24;;;;;;;;;;;;;;;4.34;67.93;99151.41;4483718;32;33852;-94
2023/01/15 05:49:52;;;;;;;;;;;;;;;4.83;66.36;99163.47;4483922;32;34756;-90
2023/01/15 05:52:19;;;;;;;;;;;;;;;5.17;65.14;99149.22;4483309;32;33856;-93
2023/01/15 05:54:47;;;;;;;;;;;;;;;4.80;66.54;99147.94;4480517;31;33451;-94
2023/01/15 05:57:15;;;;;;;;;;;;;;;4.31;67.97;99150.44;4476492;32;33863;-91
2023/01/15 05:59:42;;;;;;;;;;;;;;;4.43;68.12;99139.72;4473371;32;33736;-84
2023/01/15 06:02:09;;;;;;;;;;;;;;;5.18;66.25;99156.09;4482781;32;35055;-92
2023/01/15 06:04:37;;;;;;;;;;;;;;;5.00;66.11;99152.91;4483364;31;34170;-88
2023/01/15 06:07:04;;;;;;;;;;;;;;;4.05;69.77;99152.00;4469141;32;34345;-88
2023/01/15 06:09:31;;;;;;;;;;;;;;;5.13;66.41;99137.09;4483602;32;35374;-87
2023/01/15 06:11:58;;;;;;;;;;;;;;;5.32;65.41;99134.31;4483911;32;34253;-86
2023/01/15 06:14:26;;;;;;;;;;;;;;;4.86;67.43;99121.59;4483217;32;33118;-86
2023/01/15 06:16:53;;;;;;;;;;;;;;;5.45;65.01;99139.84;4483401;32;33628;-92
2023/01/15 06:19:20;;;;;;;;;;;;;;;5.70;64.44;99138.94;4483420;32;33805;-93
2023/01/15 06:21:48;;;;;;;;;;;;;;;5.20;66.41;99130.47;4483519;32;33708;-90
2023/01/15 06:24:16;;;;;;;;;;;;;;;5.37;65.54;99134.44;4483110;32;32995;-91
2023/01/15 06:26:44;;;;;;;;;;;;;;;6.12;63.27;99135.97;4483128;32;34035;-90
2023/01/15 06:29:16;;;;;;;;;;;;;;;5.42;65.17;99144.88;4482593;32;34346;-82
2023/01/15 06:31:43;;;;;;;;;;;;;;;5.64;64.78;99131.03;4482921;32;35279;-84
2023/01/15 06:34:10;;;;;;;;;;;;;;;6.56;62.32;99129.53;4483518;32;34269;-90
2023/01/15 06:36:38;;;;;;;;;;;;;;;5.82;64.51;99132.47;4482854;32;34646;-92
2023/01/15 06:39:05;;;;;;;;;;;;;;;6.30;63.11;99137.38;4482986;32;34262;-92
2023/01/15 06:47:19;;;;;;;;;;;;;;;7.33;59.96;99132.44;4483182;32;33761;-84
2023/01/15 06:49:47;;;;;;;;;;;;;;;7.17;59.75;99126.03;4470301;32;34107;-83
2023/01/15 06:52:15;;;;;;;;;;;;;;;6.96;61.42;99133.19;4482549;32;34324;-93
2023/01/15 06:54:42;;;;;;;;;;;;;;;7.80;58.56;99118.09;4482415;32;33245;-89
2023/01/15 06:57:09;;;;;;;;;;;;;;;7.67;58.83;99121.22;4482793;32;34227;-92
2023/01/15 06:59:37;;;;;;;;;;;;;;;7.83;58.92;99111.25;4483525;32;34176;-91
2023/01/15 07:02:04;;;;;;;;;;;;;;;7.76;58.92;99117.97;4483014;32;34198;-92
2023/01/15 07:04:31;;;;;;;;;;;;;;;7.99;57.98;99118.50;4470330;32;33140;-83
2023/01/15 07:06:58;;;;;;;;;;;;;;;7.59;58.86;99115.03;4484941;32;34221;-95
2023/01/15 07:09:26;;;;;;;;;;;;;;;7.72;59.11;99114.44;4484825;32;35215;-83
2023/01/15 07:11:53;;;;;;;;;;;;;;;7.77;58.66;99119.75;4484595;32;34101;-92
2023/01/15 07:14:21;;;;;;;;;;;;;;;8.48;57.01;99114.41;4473115;32;33397;-84
2023/01/15 07:16:49;;;;;;;;;;;;;;;7.79;58.08;99115.47;4486107;32;34833;-93
2023/01/15 07:19:16;;;;;;;;;;;;;;;8.16;57.75;99109.41;4484762;32;33936;-94
2023/01/15 07:21:44;;;;;;;;;;;;;;;8.32;56.95;99114.91;4484573;32;34184;-84
2023/01/15 07:24:12;;;;;;;;;;;;;;;8.69;56.10;99112.25;4484090;32;33651;-90
2023/01/15 07:26:40;;;;;;;;;;;;;;;9.08;55.30;99106.06;4484870;32;34915;-85
2023/01/15 07:29:07;;;;;;;;;;;;;;;8.85;56.15;99103.06;4470313;32;34978;-90
2023/01/15 07:31:34;;;;;;;;;;;;;;;8.64;56.35;99107.84;4485031;32;34563;-88
2023/01/15 07:34:06;;;;;;;;;;;;;;;7.85;58.71;99117.34;4484401;32;33185;-81
2023/01/15 07:36:34;;;;;;;;;;;;;;;7.54;59.65;99109.75;4484526;32;34262;-88
2023/01/15 07:39:04;;;;;;;;;;;;;;;7.17;61.93;99115.72;4484669;32;34495;-89
2023/01/15 07:50:14;;;;;;;;;;;;;;;7.13;62.15;99098.41;4472081;32;35244;-93
2023/01/15 07:52:41;;;;;;;;;;;;;;;7.16;62.52;99105.34;4484524;32;35020;-85
2023/01/15 07:55:11;;;;;;;;;;;;;;;6.99;62.92;99098.06;4470084;32;33119;-83
2023/01/15 07:57:39;;;;;;;;;;;;;;;6.66;64.19;99103.19;4470582;32;34340;-89
2023/01/15 08:00:13;;;;;;;;;;;;;;;6.92;63.43;99103.00;4469708;32;34096;-94
2023/01/15 08:02:41;;;;;;;;;;;;;;;6.45;65.46;99103.47;4469471;32;34730;-91
2023/01/15 08:05:10;;;;;;;;;;;;;;;6.16;66.57;99096.63;4484873;32;33471;-89
2023/01/15 08:07:39;;;;;;;;;;;;;;;5.81;67.83;99083.56;4484417;32;33933;-92
2023/01/15 08:10:07;;;;;;;;;;;;;;;6.40;65.73;99086.13;4483654;32;34070;-81
2023/01/15 08:15:24;;;;;;;;;;;;;;;5.33;69.38;99092.34;4482933;31;34496;-83
2023/01/15 08:17:51;;;;;;;;;;;;;;;6.25;66.92;99091.72;4469428;32;34233;-81
2023/01/15 08:20:19;;;;;;;;;;;;;;;5.88;68.53;99097.47;4470340;32;34481;-89
2023/01/15 08:22:47;;;;;;;;;;;;;;;5.86;68.61;99093.16;4484155;32;34729;-93
2023/01/15 08:25:15;;;;;;;;;;;;;;;4.80;72.26;99100.84;4480798;32;34022;-93
2023/01/15 08:27:43;;;;;;;;;;;;;;;5.19;70.97;99103.00;4469569;32;34972;-92
2023/01/15 08:30:12;;;;;;;;;;;;;;;5.94;68.24;99085.69;4469174;32;34447;-93
2023/01/15 08:32:39;;;;;;;;;;;;;;;6.46;67.07;99084.63;4484328;32;34881;-94
2023/01/15 08:35:07;;;;;;;;;;;;;;;6.18;67.69;99098.44;4474865;32;33259;-87
2023/01/15 08:37:34;;;;;;;;;;;;;;;6.22;67.62;99097.69;4478904;32;34938;-83
2023/01/15 08:40:01;;;;;;;;;;;;;;;6.74;66.14;99104.28;4471461;32;34223;-88
2023/01/15 08:42:29;;;;;;;;;;;;;;;5.95;68.15;99097.75;4484075;31;34933;-93
2023/01/15 08:44:56;;;;;;;;;;;;;;;6.31;68.00;99102.22;4470010;32;33350;-92
2023/01/15 08:47:23;;;;;;;;;;;;;;;6.44;67.01;99090.53;4482942;32;34261;-89
2023/01/15 08:49:51;;;;;;;;;;;;;;;6.43;67.57;99091.38;4482908;32;34275;-86
2023/01/15 08:52:18;;;;;;;;;;;;;;;7.12;65.36;99091.50;4482956;32;34040;-85
2023/01/15 08:54:45;;;;;;;;;;;;;;;7.63;63.55;99090.16;4469956;32;33650;-95
2023/01/15 08:57:13;;;;;;;;;;;;;;;6.80;65.85;99088.97;4483633;32;34082;-94
2023/01/15 08:59:42;;;;;;;;;;;;;;;6.22;67.74;99087.37;4481739;32;35375;-91
2023/01/15 09:02:12;;;;;;;;;;;;;;;6.42;67.79;99085.38;4473477;32;34161;-92
2023/01/15 09:04:39;;;;;;;;;;;;;;;6.63;66.54;99079.94;4477844;31;33774;-92
2023/01/15 09:07:07;;;;;;;;;;;;;;;6.08;68.19;99086.09;4477164;32;35344;-91
2023/01/15 09:09:35;;;;;;;;;;;;;;;7.25;64.92;99067.78;4484178;32;35781;-90
2023/01/15 09:12:05;;;;;;;;;;;;;;;7.27;64.29;99057.50;4483647;32;35428;-86
2023/01/15 09:14:32;;;;;;;;;;;;;;;7.58;63.76;99051.38;4483350;32;33204;-85
2023/01/15 09:17:19;;;;;;;;;;;;;;;7.83;62.40;99050.19;4483874;32;34130;-90
2023/01/15 09:19:47;;;;;;;;;;;;;;;6.80;64.99;99052.91;4483279;32;35126;-90
2023/01/15 09:22:14;;;;;;;;;;;;;;;6.45;66.89;99043.38;4482544;32;34347;-82
2023/01/15 09:24:41;;;;;;;;;;;;;;;6.41;67.19;99051.84;4478454;32;34149;-90
2023/01/15 09:27:12;;;;;;;;;;;;;;;6.86;65.68;99039.31;4482567;32;33862;-83
2023/01/15 09:29:39;;;;;;;;;;;;;;;6.70;66.42;99038.03;4483836;32;33894;-95
2023/01/15 09:32:08;;;;;;;;;;;;;;;6.17;68.15;99032.31;4483932;32;34528;-91
2023/01/15 09:34:36;;;;;;;;;;;;;;;6.77;65.87;99036.50;4476641;32;33423;-92
2023/01/15 09:37:03;;;;;;;;;;;;;;;7.09;65.14;99019.28;4479740;32;33823;-85
2023/01/15 09:39:30;;;;;;;;;;;;;;;6.95;65.52;99020.63;4481753;32;34446;-82
2023/01/15 09:42:11;;;;;;;;;;;;;;;7.25;64.41;99008.47;4482983;32;34331;-92
2023/01/15 09:44:57;;;;;;;;;;;;;;;7.44;64.22;99007.19;4475500;32;33167;-90
2023/01/15 09:47:24;;;;;;;;;;;;;;;7.28;64.85;99000.81;4473817;32;34963;-84
2023/01/15 09:49:57;;;;;;;;;;;;;;;6.68;67.38;99016.53;4485142;32;34396;-82
2023/01/15 09:52:33;;;;;;;;;;;;;;;7.90;63.45;98992.69;4468582;32;35645;-92
2023/01/15 09:55:12;;;;;;;;;;;;;;;7.47;64.44;98998.66;4475979;32;34863;-88
2023/01/15 09:57:40;;;;;;;;;;;;;;;7.25;64.83;98998.16;4456726;32;33978;-94
2023/01/15 10:00:12;;;;;;;;;;;;;;;6.87;66.85;98986.06;4468149;32;34151;-96
2023/01/15 10:02:44;;;;;;;;;;;;;;;7.29;65.32;98973.31;4467634;32;34647;-89
2023/01/15 10:05:22;;;;;;;;;;;;;;;7.78;64.31;98964.06;4468921;32;32633;-89
2023/01/15 10:07:55;;;;;;;;;;;;;;;7.64;64.37;98968.91;4479883;32;34259;-94
2023/01/15 10:10:24;;;;;;;;;;;;;;;7.94;63.34;98955.78;4468089;32;33885;-86
2023/01/15 10:12:52;;;;;;;;;;;;;;;7.02;66.17;98956.37;4469158;32;35008;-88
2023/01/15 10:15:22;;;;;;;;;;;;;;;8.02;63.31;98948.19;4472036;32;33050;-89
2023/01/15 10:17:52;;;;;;;;;;;;;;;8.11;62.84;98944.94;4467493;32;34191;-87
2023/01/15 10:20:22;;;;;;;;;;;;;;;8.43;62.54;98923.16;4467649;32;34513;-89
2023/01/15 10:22:49;;;;;;;;;;;;;;;8.49;61.76;98927.56;4480331;32;34981;-93
2023/01/15 10:25:18;;;;;;;;;;;;;;;8.04;62.71;98936.19;4474891;32;33460;-93
2023/01/15 10:27:47;;;;;;;;;;;;;;;9.00;60.59;98922.34;4475016;32;34604;-82
2023/01/15 10:30:35;;;;;;;;;;;;;;;8.04;62.88;98924.16;4467991;32;35106;-93
2023/01/15 10:33:05;;;;;;;;;;;;;;;7.39;65.31;98926.28;4470295;32;34361;-94
2023/01/15 10:35:53;;;;;;;;;;;;;;;7.53;64.20;98914.50;4468084;32;33926;-82
2023/01/15 10:38:32;;;;;;;;;;;;;;;7.45;64.92;98904.88;4462713;32;34830;-82
2023/01/15 10:41:24;;;;;;;;;;;;;;;8.16;62.71;98887.34;4466704;32;34119;-82
2023/01/15 10:43:53;;;;;;;;;;;;;;;7.97;64.07;98900.75;4467646;32;34981;-89
2023/01/15 10:46:31;;;;;;;;;;;;;;;7.89;63.88;98882.56;4442254;32;33146;-92
2023/01/15 10:48:59;;;;;;;;;;;;;;;8.26;62.92;98878.94;4455465;32;33089;-82
2023/01/15 10:51:32;;;;;;;;;;;;;;;8.58;62.33;98868.28;4468076;32;34048;-83
2023/01/15 10:54:18;;;;;;;;;;;;;;;8.90;60.15;98873.06;4467332;32;33900;-83
2023/01/15 10:56:50;;;;;;;;;;;;;;;10.03;57.63;98869.28;4482202;32;34116;-93
2023/01/15 10:59:20;;;;;;;;;;;;;;;8.27;61.83;98861.72;4478819;32;34303;-90
2023/01/15 11:01:51;;;;;;;;;;;;;;;7.82;63.94;98857.47;4480999;32;35230;-83
2023/01/15 11:04:19;;;;;;;;;;;;;;;8.39;62.18;98846.44;4467774;32;33715;-91
2023/01/15 11:06:48;;;;;;;;;;;;;;;8.61;61.58;98839.03;4453879;32;33076;-83
2023/01/15 11:09:21;;;;;;;;;;;;;;;9.17;59.83;98829.50;4464772;32;33538;-82
2023/01/15 11:20:13;;;;;;;;;;;;;;;8.75;60.20;98820.31;4482651;32;34622;-92
2023/01/15 11:22:41;;;;;;;;;;;;;;;9.72;56.49;98806.84;4477801;32;35169;-82
2023/01/15 11:25:11;;;;;;;;;;;;;;;8.98;58.51;98805.13;4448567;32;33683;-86
2023/01/15 11:27:38;;;;;;;;;;;;;;;8.49;60.90;98816.47;4473149;32;34261;-84
2023/01/15 11:30:23;;;;;;;;;;;;;;;7.95;61.60;98807.78;4476367;32;34111;-84
2023/01/15 11:32:53;;;;;;;;;;;;;;;7.84;62.44;98803.28;4464980;32;34124;-84
2023/01/15 11:35:21;;;;;;;;;;;;;;;8.47;61.18;98794.91;4464094;32;34363;-93
2023/01/15 11:37:48;;;;;;;;;;;;;;;8.84;60.03;98790.28;4467517;32;33002;-86
2023/01/15 11:40:19;;;;;;;;;;;;;;;9.78;57.52;98790.50;4480724;32;34322;-91
2023/01/15 11:51:13;;;;;;;;;;;;;;;8.92;59.62;98748.16;4472475;32;34111;-82
2023/01/15 11:53:41;;;;;;;;;;;;;;;8.90;59.60;98746.38;4466850;32;33987;-95
2023/01/15 11:56:09;;;;;;;;;;;;;;;9.19;58.43;98726.91;4479697;32;36085;-87
2023/01/15 11:58:41;;;;;;;;;;;;;;;9.21;58.78;98714.88;4469512;32;34182;-85
2023/01/15 12:01:11;;;;;;;;;;;;;;;9.41;57.56;98716.81;4465653;32;34792;-89
2023/01/15 12:03:38;;;;;;;;;;;;;;;9.94;56.58;98713.84;4459587;32;35271;-83
2023/01/15 12:06:10;;;;;;;;;;;;;;;9.27;58.14;98709.75;4473491;32;34236;-82
2023/01/15 12:08:38;;;;;;;;;;;;;;;8.91;59.36;98709.38;4467039;32;33151;-91
2023/01/15 12:11:06;;;;;;;;;;;;;;;9.97;56.87;98698.34;4482957;32;34814;-90
2023/01/15 12:14:01;;;;;;;;;;;;;;;9.44;57.68;98693.56;4474799;32;34435;-89
2023/01/15 12:16:39;;;;;;;;;;;;;;;9.27;57.98;98707.19;4480457;32;34996;-88
2023/01/15 12:19:19;;;;;;;;;;;;;;;10.17;55.61;98701.91;4454251;32;33887;-82
2023/01/15 12:21:56;;;;;;;;;;;;;;;9.45;57.02;98703.06;4462488;32;35097;-94
2023/01/15 12:24:33;;;;;;;;;;;;;;;10.43;55.12;98698.66;4472296;32;34557;-87
2023/01/15 12:27:01;;;;;;;;;;;;;;;10.11;55.51;98699.28;4468365;32;34450;-95
2023/01/15 12:29:30;;;;;;;;;;;;;;;9.37;57.55;98697.81;4469216;32;33730;-91
2023/01/15 12:32:00;;;;;;;;;;;;;;;9.78;56.62;98702.50;4477598;32;33528;-92
2023/01/15 12:34:36;;;;;;;;;;;;;;;9.95;55.82;98700.91;4464989;32;34204;-89
2023/01/15 12:37:05;;;;;;;;;;;;;;;9.97;55.69;98698.34;4454593;32;34074;-91
2023/01/15 12:39:44;;;;;;;;;;;;;;;10.05;55.71;98693.22;4461268;32;32492;-86
2023/01/15 12:45:03;;;;;;;;;;;;;;;9.38;57.54;98689.19;4456096;32;35122;-83
2023/01/15 12:47:38;;;;;;;;;;;;;;;10.63;54.24;98691.84;4464131;32;33494;-91
2023/01/15 12:50:06;;;;;;;;;;;;;;;11.01;52.64;98685.97;4478080;32;33346;-80
2023/01/15 12:52:35;;;;;;;;;;;;;;;10.94;52.34;98681.59;4470707;32;35011;-89
2023/01/15 12:55:13;;;;;;;;;;;;;;;10.55;53.28;98683.19;4466142;32;34478;-89
2023/01/15 12:57:43;;;;;;;;;;;;;;;10.53;53.41;98684.91;4453866;32;34699;-91
2023/01/15 13:00:17;;;;;;;;;;;;;;;10.17;54.36;98681.19;4477160;32;33068;-92
2023/01/15 13:02:54;;;;;;;;;;;;;;;10.21;54.32;98682.09;4482592;32;32830;-89
2023/01/15 13:05:29;;;;;;;;;;;;;;;10.01;55.30;98684.56;4478505;32;35228;-95
2023/01/15 13:07:58;;;;;;;;;;;;;;;10.01;54.98;98681.09;4467417;32;34271;-84
2023/01/15 13:10:27;;;;;;;;;;;;;;;10.22;55.36;98676.03;4483943;32;33270;-92
2023/01/15 13:12:54;;;;;;;;;;;;;;;10.03;55.20;98689.72;4456593;32;34738;-89
2023/01/15 13:15:24;;;;;;;;;;;;;;;9.71;56.41;98691.22;4477846;32;35246;-89
2023/01/15 13:18:08;;;;;;;;;;;;;;;10.70;54.26;98670.28;4462346;32;34245;-89
2023/01/15 13:21:02;;;;;;;;;;;;;;;11.03;53.35;98673.88;4456419;32;33405;-85
2023/01/15 13:23:49;;;;;;;;;;;;;;;10.69;53.81;98668.56;4474969;32;34003;-91
2023/01/15 13:26:22;;;;;;;;;;;;;;;10.44;54.42;98664.12;4479576;32;34563;-84
2023/01/15 13:28:52;;;;;;;;;;;;;;;10.59;53.61;98659.00;4474335;32;34216;-88
2023/01/15 13:31:20;;;;;;;;;;;;;;;10.36;53.98;98655.44;4469849;32;33578;-90
2023/01/15 13:33:49;;;;;;;;;;;;;;;9.93;55.49;98649.97;4476081;32;35105;-91
2023/01/15 13:36:26;;;;;;;;;;;;;;;10.50;53.87;98643.44;4481356;32;34446;-85
2023/01/15 13:38:56;;;;;;;;;;;;;;;10.08;54.71;98641.44;4456807;32;34069;-86
2023/01/15 13:44:15;;;;;;;;;;;;;;;10.62;53.25;98638.28;4466212;32;33891;-89
2023/01/15 13:46:42;;;;;;;;;;;;;;;10.93;52.74;98638.38;4456810;32;34178;-87
2023/01/15 13:49:15;;;;;;;;;;;;;;;11.27;51.43;98635.88;4465613;32;34940;-92
2023/01/15 13:51:45;;;;;;;;;;;;;;;11.02;51.81;98637.53;4460930;32;33784;-92
2023/01/15 13:54:17;;;;;;;;;;;;;;;11.63;50.17;98633.31;4451662;32;33509;-91
2023/01/15 13:56:45;;;;;;;;;;;;;;;10.87;51.45;98618.50;4457526;32;34445;-82
2023/01/15 13:59:38;;;;;;;;;;;;;;;11.40;49.92;98619.44;4479220;32;34043;-92
2023/01/15 14:02:33;;;;;;;;;;;;;;;11.35;50.03;98618.56;4466273;32;33147;-84